Airport View

Enter AWOS ICAO identifier for current METAR.

ex. KFNL

KAID 051355Z AUTO 35004KT 10SM CLR 17/13 A3016 RMK AO2 T01700125

5 Aug 2020 13:56

Frequency: 128.55

Phone: 765-378-1510

Other Area AWOS: KMIE - KMQJ - KMZZ - KTYQ

TAF KIND 051123Z 0512/0618 VRB06KT P6SM SCT250